Time;durP1;ratioP1;P1;durP2;ratioP2;P2;SDS_P1;SDS_P2;PMS_P1;PMS_P2;Temp;Humidity;BMP_temperature;BMP_pressure;BME280_temperature;BME280_humidity;BME280_pressure;Samples;Min_cycle;Max_cycle;Signal;HPM_P1;HPM_P2
2023/07/02 00:00:01;;;;;;;3.70;3.17;;;;;;;21.35;59.24;96896.59;5073809;28;20871;-69
2023/07/02 00:02:27;;;;;;;3.80;3.30;;;;;;;21.37;59.53;96899.03;5090749;28;20193;-69
2023/07/02 00:04:52;;;;;;;3.20;2.90;;;;;;;21.37;59.58;96897.16;5091758;28;20489;-70
2023/07/02 00:07:18;;;;;;;3.60;2.73;;;;;;;21.39;59.47;96894.28;5088520;28;20858;-71
2023/07/02 00:09:43;;;;;;;3.20;2.90;;;;;;;21.35;59.53;96898.44;5090793;28;20209;-70
2023/07/02 00:12:09;;;;;;;3.63;2.87;;;;;;;21.33;59.62;96894.16;5093711;28;20192;-69
2023/07/02 00:14:34;;;;;;;4.23;2.77;;;;;;;21.35;59.63;96899.28;5096892;28;20265;-69
2023/07/02 00:17:00;;;;;;;4.60;3.17;;;;;;;21.31;59.70;96901.56;5088941;28;20279;-68
2023/07/02 00:19:26;;;;;;;3.13;2.93;;;;;;;21.29;59.89;96903.66;5090211;28;20346;-69
2023/07/02 00:21:53;;;;;;;5.40;3.17;;;;;;;21.19;59.95;96906.06;5101338;28;20182;-69
2023/07/02 00:24:18;;;;;;;2.67;2.47;;;;;;;21.22;59.81;96899.47;5085593;28;20189;-68
2023/07/02 00:26:44;;;;;;;3.67;2.83;;;;;;;21.18;59.69;96896.44;5089445;28;20949;-70
2023/07/02 00:29:09;;;;;;;3.70;3.40;;;;;;;21.20;59.48;96899.69;5092791;28;20217;-69
2023/07/02 00:31:35;;;;;;;4.20;3.57;;;;;;;21.17;59.28;96900.16;5090087;28;20192;-68
2023/07/02 00:34:01;;;;;;;7.37;4.10;;;;;;;21.18;59.33;96912.41;5089613;28;20579;-70
2023/07/02 00:36:27;;;;;;;4.00;3.40;;;;;;;21.14;58.89;96906.75;5091997;28;20200;-67
2023/07/02 00:38:53;;;;;;;3.30;3.00;;;;;;;21.16;59.17;96896.66;5091418;28;20243;-69
2023/07/02 00:41:18;;;;;;;7.17;3.83;;;;;;;21.15;59.16;96902.25;5095041;28;20427;-70
2023/07/02 00:43:44;;;;;;;3.67;3.37;;;;;;;21.13;59.12;96901.66;5093784;28;20257;-70
2023/07/02 00:46:22;;;;;;;3.93;2.77;;;;;;;21.13;58.90;96902.44;5089287;28;20272;-69
2023/07/02 00:48:57;;;;;;;4.67;3.80;;;;;;;21.17;58.27;96905.50;5088868;28;20197;-69
2023/07/02 00:51:26;;;;;;;6.70;3.07;;;;;;;21.13;58.13;96905.13;5082601;28;20450;-69
2023/07/02 00:53:54;;;;;;;5.73;3.70;;;;;;;21.10;58.44;96910.09;5099187;28;20437;-69
2023/07/02 00:56:20;;;;;;;4.83;3.23;;;;;;;21.09;58.08;96903.97;5089508;28;20423;-70
2023/07/02 00:58:50;;;;;;;7.87;4.00;;;;;;;21.07;58.23;96910.53;5099370;28;20423;-70
2023/07/02 01:01:16;;;;;;;6.70;5.33;;;;;;;21.06;58.04;96909.75;5094664;28;21362;-69
2023/07/02 01:03:56;;;;;;;5.77;5.17;;;;;;;21.07;58.46;96911.38;5076679;28;20514;-69
2023/07/02 01:06:30;;;;;;;5.30;3.90;;;;;;;21.07;58.49;96905.22;5088800;28;20189;-70
2023/07/02 01:08:57;;;;;;;10.17;8.43;;;;;;;21.04;58.52;96916.34;5089128;28;20515;-68
2023/07/02 01:11:34;;;;;;;5.97;4.30;;;;;;;21.04;58.51;96913.69;5092176;28;20947;-68
2023/07/02 01:14:02;;;;;;;3.93;3.40;;;;;;;21.02;58.60;96909.38;5089093;28;20439;-69
2023/07/02 01:16:30;;;;;;;6.60;5.90;;;;;;;21.00;58.99;96907.97;5087898;28;20427;-69
2023/07/02 01:18:56;;;;;;;4.77;4.27;;;;;;;21.00;58.99;96906.13;5088411;28;20423;-68
2023/07/02 01:21:23;;;;;;;4.00;3.50;;;;;;;21.05;58.50;96920.59;5098784;28;21073;-68
2023/07/02 01:23:49;;;;;;;5.30;4.50;;;;;;;21.04;58.42;96921.66;5075762;28;20195;-69
2023/07/02 01:26:15;;;;;;;6.07;5.47;;;;;;;21.01;58.37;96917.59;5088875;28;20431;-70
2023/07/02 01:28:41;;;;;;;8.40;5.50;;;;;;;20.97;58.31;96924.41;5058847;28;20254;-69
2023/07/02 01:31:06;;;;;;;6.93;3.83;;;;;;;20.91;58.44;96917.31;5098281;28;20216;-70
2023/07/02 01:33:32;;;;;;;4.10;3.30;;;;;;;20.89;58.62;96916.72;5097143;28;20459;-69
2023/07/02 01:35:58;;;;;;;6.20;5.60;;;;;;;20.83;58.74;96910.44;5087876;28;20288;-69
2023/07/02 01:38:24;;;;;;;5.50;3.80;;;;;;;20.76;59.24;96904.41;5088209;28;20304;-68
2023/07/02 01:40:50;;;;;;;8.93;6.10;;;;;;;20.77;59.19;96906.03;5093479;28;20546;-69
2023/07/02 01:43:15;;;;;;;7.73;6.80;;;;;;;20.78;59.35;96894.34;5088837;28;20870;-69
2023/07/02 01:45:41;;;;;;;4.50;4.10;;;;;;;20.62;59.95;96893.91;5091095;28;20339;-68
2023/07/02 01:48:07;;;;;;;8.53;7.50;;;;;;;20.61;60.45;96892.28;5087684;28;20680;-69
2023/07/02 01:50:33;;;;;;;3.80;3.20;;;;;;;20.65;60.00;96893.47;5096828;28;20471;-69
2023/07/02 01:52:59;;;;;;;15.47;13.40;;;;;;;20.66;60.27;96903.06;5100277;28;20186;-69
2023/07/02 01:55:24;;;;;;;8.90;7.87;;;;;;;20.66;60.43;96908.41;5089390;28;20221;-69
2023/07/02 01:57:49;;;;;;;7.47;4.93;;;;;;;20.60;60.28;96911.94;5089986;28;20543;-68
2023/07/02 02:00:16;;;;;;;10.27;6.67;;;;;;;20.59;60.23;96912.97;5090927;28;20240;-69
2023/07/02 02:02:42;;;;;;;7.90;5.30;;;;;;;20.54;60.03;96921.63;5090140;28;20182;-70
2023/07/02 02:05:08;;;;;;;9.47;6.40;;;;;;;20.54;59.97;96918.19;5088147;28;20469;-69
2023/07/02 02:07:35;;;;;;;18.03;15.97;;;;;;;20.54;59.93;96926.16;5091518;28;20826;-68
2023/07/02 02:10:01;;;;;;;17.70;10.00;;;;;;;20.53;60.06;96919.22;5090718;28;20236;-68
2023/07/02 02:12:28;;;;;;;6.93;5.90;;;;;;;20.57;59.49;96923.03;5102247;28;20455;-70
2023/07/02 02:14:53;;;;;;;7.40;5.80;;;;;;;20.57;59.22;96917.72;5082917;28;20513;-68
2023/07/02 02:17:19;;;;;;;2.97;2.47;;;;;;;20.59;59.42;96930.81;5087048;28;20498;-70
2023/07/02 02:19:44;;;;;;;2.70;2.50;;;;;;;20.57;59.73;96923.03;5089741;28;20682;-69
2023/07/02 02:22:10;;;;;;;7.00;5.70;;;;;;;20.60;60.21;96917.25;5098737;28;20707;-69
2023/07/02 02:24:35;;;;;;;4.87;4.37;;;;;;;20.64;60.24;96922.94;5089334;28;20289;-69
2023/07/02 02:27:01;;;;;;;8.17;7.30;;;;;;;20.62;60.71;96919.69;5087725;28;20185;-68
2023/07/02 02:29:26;;;;;;;4.07;3.70;;;;;;;20.59;60.68;96917.50;5089388;28;20225;-68
2023/07/02 02:31:52;;;;;;;6.50;4.97;;;;;;;20.60;60.70;96911.94;5088915;28;20451;-70
2023/07/02 02:34:17;;;;;;;3.97;3.47;;;;;;;20.64;60.51;96910.47;5094271;28;20186;-68
2023/07/02 02:36:43;;;;;;;12.93;11.13;;;;;;;20.64;60.81;96910.47;5089167;28;20217;-69
2023/07/02 02:39:08;;;;;;;5.00;4.30;;;;;;;20.61;60.57;96918.91;5094335;28;20649;-69
2023/07/02 02:41:34;;;;;;;6.17;4.40;;;;;;;20.65;60.52;96917.41;5089186;28;20507;-69
2023/07/02 02:43:59;;;;;;;7.67;5.20;;;;;;;20.64;60.14;96918.44;5086664;28;20189;-69
2023/07/02 02:46:25;;;;;;;11.80;8.07;;;;;;;20.65;60.10;96920.09;5090529;28;20634;-68
2023/07/02 02:48:51;;;;;;;6.80;6.10;;;;;;;20.61;60.69;96916.22;5087270;28;20218;-69
2023/07/02 02:51:17;;;;;;;13.43;10.43;;;;;;;20.64;60.15;96913.13;5073979;28;20189;-70
2023/07/02 02:53:42;;;;;;;8.20;7.40;;;;;;;20.62;60.33;96919.69;5100580;28;20423;-69
2023/07/02 02:56:07;;;;;;;4.70;4.33;;;;;;;20.61;60.20;96916.22;5088227;28;20189;-69
2023/07/02 02:58:33;;;;;;;15.47;11.93;;;;;;;20.64;60.78;96923.78;5090281;28;20580;-71
2023/07/02 03:00:58;;;;;;;7.73;6.93;;;;;;;20.66;60.50;96929.69;5091835;28;20289;-69
2023/07/02 03:03:24;;;;;;;6.40;5.30;;;;;;;20.62;60.98;96933.84;5091542;28;20217;-69
2023/07/02 03:05:50;;;;;;;8.33;5.17;;;;;;;20.59;60.26;96930.81;5095020;28;20193;-70
2023/07/02 03:08:16;;;;;;;4.20;2.87;;;;;;;20.58;59.66;96945.94;5090054;28;20217;-70
2023/07/02 03:10:41;;;;;;;3.30;3.00;;;;;;;20.57;58.86;96941.66;5093245;28;20484;-69
2023/07/02 03:13:07;;;;;;;3.97;2.67;;;;;;;20.60;58.68;96951.06;5086242;28;20187;-70
2023/07/02 03:15:32;;;;;;;4.67;3.40;;;;;;;20.59;58.63;96952.09;5091826;28;20246;-68
2023/07/02 03:17:58;;;;;;;5.70;4.90;;;;;;;20.63;58.47;96958.59;5092198;28;20205;-69
2023/07/02 03:20:24;;;;;;;4.00;3.60;;;;;;;20.64;58.79;96961.06;5090739;28;20305;-70
2023/07/02 03:22:49;;;;;;;4.33;3.90;;;;;;;20.63;59.69;96959.41;5090118;28;20193;-70
2023/07/02 03:25:15;;;;;;;6.47;3.60;;;;;;;20.64;59.45;96968.22;5089861;28;20910;-70
2023/07/02 03:27:40;;;;;;;3.20;2.83;;;;;;;20.56;59.74;96969.31;5090180;28;20196;-71
2023/07/02 03:30:06;;;;;;;4.20;3.00;;;;;;;20.46;59.48;96980.50;5090109;28;20359;-70
2023/07/02 03:32:32;;;;;;;3.93;2.90;;;;;;;20.37;59.96;96998.59;5089685;28;21203;-69
2023/07/02 03:34:57;;;;;;;5.63;3.00;;;;;;;20.29;60.19;96990.06;5090997;28;20523;-69
2023/07/02 03:37:22;;;;;;;4.00;2.80;;;;;;;20.23;59.98;96991.78;5088972;28;20945;-68
2023/07/02 03:39:48;;;;;;;4.53;3.17;;;;;;;20.22;60.17;97000.78;5099521;28;20233;-68
2023/07/02 03:42:13;;;;;;;13.80;4.10;;;;;;;20.19;60.89;96998.56;5092637;28;20281;-68
2023/07/02 03:44:40;;;;;;;6.53;3.40;;;;;;;20.12;60.81;96995.16;5095013;28;20195;-69
2023/07/02 03:47:08;;;;;;;5.93;3.50;;;;;;;20.03;61.20;96992.78;5106406;28;20181;-70
2023/07/02 03:49:33;;;;;;;6.70;4.30;;;;;;;19.93;61.36;96997.75;5098063;28;20547;-69
2023/07/02 03:51:59;;;;;;;8.33;4.07;;;;;;;19.91;61.56;96999.84;5097725;28;20526;-69
2023/07/02 03:54:24;;;;;;;10.20;4.90;;;;;;;19.90;62.10;97008.84;5098195;28;20205;-69
2023/07/02 03:56:50;;;;;;;6.70;4.87;;;;;;;19.84;62.41;97007.00;5099969;28;20248;-70
2023/07/02 03:59:15;;;;;;;7.07;4.47;;;;;;;19.88;62.94;97008.25;5086085;28;20301;-69
2023/07/02 04:01:40;;;;;;;8.83;6.47;;;;;;;19.92;62.33;97012.06;5090547;28;20235;-69
2023/07/02 04:04:06;;;;;;;7.17;3.90;;;;;;;19.89;62.95;97008.03;5089655;28;20272;-68
2023/07/02 04:06:33;;;;;;;7.90;4.17;;;;;;;19.84;63.06;97015.81;5094728;28;20279;-68
2023/07/02 04:08:59;;;;;;;12.53;5.30;;;;;;;19.90;63.00;97019.47;5092835;28;20190;-69
2023/07/02 04:11:25;;;;;;;7.93;5.50;;;;;;;19.90;63.06;97030.13;5091486;28;20428;-70
2023/07/02 04:13:50;;;;;;;7.80;4.00;;;;;;;19.87;63.12;97031.34;5089442;28;20269;-70
2023/07/02 04:16:16;;;;;;;6.17;4.03;;;;;;;19.93;62.79;97029.66;5091320;28;20200;-68
2023/07/02 04:18:41;;;;;;;10.53;5.93;;;;;;;19.92;62.67;97033.34;5092680;28;20212;-69
2023/07/02 04:21:06;;;;;;;7.00;5.63;;;;;;;19.90;63.07;97030.13;5091558;28;20213;-68
2023/07/02 04:23:32;;;;;;;7.67;4.87;;;;;;;19.90;63.18;97024.81;5094170;28;20647;-69
2023/07/02 04:25:57;;;;;;;9.57;4.47;;;;;;;19.92;63.33;97030.69;5089252;28;20286;-71
2023/07/02 04:28:23;;;;;;;13.93;6.27;;;;;;;19.97;63.08;97025.56;5088438;28;20193;-70
2023/07/02 04:30:50;;;;;;;6.33;3.63;;;;;;;19.93;62.65;97021.69;5071066;28;20210;-69
2023/07/02 04:33:16;;;;;;;10.57;5.43;;;;;;;19.90;62.52;97030.13;5089383;28;20204;-67
2023/07/02 04:35:41;;;;;;;5.23;3.50;;;;;;;19.87;62.38;97025.22;5081422;28;20940;-68
2023/07/02 04:38:07;;;;;;;7.90;4.20;;;;;;;19.89;62.06;97031.16;5088197;28;20206;-69
2023/07/02 04:40:33;;;;;;;4.80;3.97;;;;;;;19.90;61.98;97038.09;5102217;28;20243;-69
2023/07/02 04:42:58;;;;;;;6.27;4.97;;;;;;;19.93;61.91;97040.31;5090546;28;20524;-72
2023/07/02 04:45:25;;;;;;;8.83;4.67;;;;;;;19.98;62.03;97037.00;5092379;28;20188;-69
2023/07/02 04:47:51;;;;;;;4.10;3.50;;;;;;;19.97;61.88;97036.19;5088257;28;20212;-70
2023/07/02 04:50:17;;;;;;;4.93;4.20;;;;;;;20.03;61.91;97032.69;5096162;28;20447;-68
2023/07/02 04:52:42;;;;;;;6.20;5.13;;;;;;;20.01;61.53;97032.06;5081822;28;20217;-72
2023/07/02 04:55:08;;;;;;;9.53;4.60;;;;;;;20.04;61.65;97036.94;5093847;28;20520;-71
2023/07/02 04:57:33;;;;;;;10.23;3.37;;;;;;;20.07;61.26;97030.38;5087773;28;20213;-69
2023/07/02 04:59:59;;;;;;;5.80;3.60;;;;;;;20.09;61.06;97039.78;5088618;28;20209;-71
2023/07/02 05:02:24;;;;;;;6.20;3.67;;;;;;;20.16;60.99;97046.91;5089718;28;20259;-69
2023/07/02 05:04:50;;;;;;;6.23;3.20;;;;;;;20.22;60.19;97035.38;5088394;28;20659;-69
2023/07/02 05:07:16;;;;;;;6.97;3.67;;;;;;;20.30;60.37;97039.59;5088393;28;20273;-69
2023/07/02 05:09:41;;;;;;;3.83;3.10;;;;;;;20.27;59.42;97054.16;5088598;28;20216;-69
2023/07/02 05:12:07;;;;;;;7.03;3.50;;;;;;;20.28;59.54;97047.81;5085313;28;20420;-69
2023/07/02 05:14:32;;;;;;;7.40;3.97;;;;;;;20.24;59.39;97054.59;5089825;28;20250;-69
2023/07/02 05:16:58;;;;;;;7.97;3.70;;;;;;;20.21;58.86;97057.69;5091185;28;20217;-70
2023/07/02 05:19:23;;;;;;;8.60;4.30;;;;;;;20.23;58.73;97066.25;5087198;28;20208;-67
2023/07/02 05:21:48;;;;;;;4.80;3.17;;;;;;;20.26;58.31;97065.84;5090795;28;20185;-69
2023/07/02 05:24:14;;;;;;;6.03;3.90;;;;;;;20.26;59.02;97073.81;5089201;28;20322;-69
2023/07/02 05:26:39;;;;;;;6.00;3.77;;;;;;;20.30;59.32;97074.19;5094992;28;20827;-68
2023/07/02 05:29:05;;;;;;;6.60;4.00;;;;;;;20.33;59.18;97071.91;5089607;28;20240;-69
2023/07/02 05:31:30;;;;;;;8.63;3.90;;;;;;;20.36;59.11;97079.47;5089921;28;20276;-67
2023/07/02 05:33:56;;;;;;;5.77;4.13;;;;;;;20.44;59.14;97080.19;5094285;28;20209;-68
2023/07/02 05:36:21;;;;;;;6.13;4.33;;;;;;;20.41;57.87;97071.63;5096421;28;20830;-70
2023/07/02 05:38:47;;;;;;;7.50;4.50;;;;;;;20.41;57.85;97084.94;5091107;28;20210;-70
2023/07/02 05:41:19;;;;;;;12.17;4.43;;;;;;;20.38;58.47;97074.75;5092391;28;20288;-68
2023/07/02 05:43:44;;;;;;;13.57;4.97;;;;;;;20.31;58.40;97084.59;5080243;28;20856;-69
2023/07/02 05:46:10;;;;;;;8.67;4.60;;;;;;;20.39;58.85;97081.69;5088467;28;20636;-70
2023/07/02 05:48:35;;;;;;;6.33;4.53;;;;;;;20.53;58.76;97076.25;5094164;28;20223;-70
2023/07/02 05:51:00;;;;;;;8.90;4.60;;;;;;;20.68;58.02;97084.69;5088838;28;20237;-68
2023/07/02 05:53:26;;;;;;;8.80;4.83;;;;;;;20.85;57.77;97084.13;5086270;28;20226;-69
2023/07/02 05:55:51;;;;;;;13.40;5.77;;;;;;;21.00;56.98;97086.44;5088154;28;20269;-69
2023/07/02 05:58:17;;;;;;;8.27;4.80;;;;;;;21.13;56.17;97091.59;5095859;28;20722;-69
2023/07/02 06:00:48;;;;;;;9.63;5.23;;;;;;;21.24;55.40;97083.91;5095141;28;20262;-70
2023/07/02 06:03:18;;;;;;;10.07;5.30;;;;;;;21.37;55.62;97080.28;5088370;28;20200;-68
2023/07/02 06:05:45;;;;;;;7.13;5.10;;;;;;;21.49;54.87;97091.78;5087871;28;20424;-67
2023/07/02 06:08:11;;;;;;;9.77;6.03;;;;;;;21.58;54.29;97098.44;5101485;28;20411;-71
2023/07/02 06:10:36;;;;;;;11.60;5.90;;;;;;;21.70;53.57;97095.03;5095265;28;20535;-69
2023/07/02 06:13:02;;;;;;;12.27;5.73;;;;;;;21.81;53.40;97099.59;5070657;28;20188;-70
2023/07/02 06:15:27;;;;;;;10.93;6.80;;;;;;;21.91;52.85;97099.88;5091946;28;20185;-70
2023/07/02 06:17:53;;;;;;;13.47;6.90;;;;;;;21.97;52.41;97094.66;5086006;28;20288;-70
2023/07/02 06:20:18;;;;;;;15.07;7.27;;;;;;;22.01;52.41;97098.50;5087303;28;20210;-69
2023/07/02 06:22:43;;;;;;;11.13;6.40;;;;;;;22.07;51.78;97098.41;5099148;28;20235;-69
2023/07/02 06:25:09;;;;;;;13.63;7.30;;;;;;;22.11;51.94;97090.75;5093427;28;20275;-69
2023/07/02 06:27:34;;;;;;;10.47;6.40;;;;;;;22.20;51.53;97097.38;5087157;28;20208;-69
2023/07/02 06:30:00;;;;;;;13.40;8.07;;;;;;;22.33;51.29;97108.88;5069385;28;20205;-68
2023/07/02 06:32:25;;;;;;;14.27;8.20;;;;;;;22.36;50.30;97103.06;5087625;28;20182;-69
2023/07/02 06:34:51;;;;;;;16.83;8.30;;;;;;;22.38;50.47;97095.66;5092005;28;20208;-69
2023/07/02 06:37:16;;;;;;;13.70;8.50;;;;;;;22.30;49.73;97102.13;5074534;28;20886;-69
2023/07/02 06:39:42;;;;;;;18.40;8.53;;;;;;;22.18;49.55;97096.78;5091582;28;20209;-68
2023/07/02 06:42:07;;;;;;;14.77;8.50;;;;;;;22.20;49.57;97099.22;5102208;28;20257;-69
2023/07/02 06:44:32;;;;;;;14.07;8.70;;;;;;;22.17;49.38;97105.00;5096904;28;20225;-68
2023/07/02 06:46:58;;;;;;;13.37;7.40;;;;;;;22.16;50.02;97108.72;5091649;28;20620;-69
2023/07/02 06:49:23;;;;;;;17.33;9.00;;;;;;;22.05;50.14;97105.00;5099418;28;20633;-70
2023/07/02 06:51:49;;;;;;;18.87;8.97;;;;;;;22.00;49.71;97105.66;5099110;28;20189;-70
2023/07/02 06:54:14;;;;;;;17.40;9.20;;;;;;;22.09;49.67;97114.16;5092586;28;20197;-71
2023/07/02 06:56:40;;;;;;;22.30;8.83;;;;;;;22.19;49.93;97113.63;5095757;28;20197;-69
2023/07/02 06:59:05;;;;;;;19.70;9.73;;;;;;;22.28;50.04;97114.09;5087393;28;20642;-70
2023/07/02 07:01:31;;;;;;;13.97;8.90;;;;;;;22.33;49.50;97116.88;5091137;28;20221;-70
2023/07/02 07:03:56;;;;;;;16.57;9.07;;;;;;;22.40;49.26;97120.25;5092239;28;20189;-69
2023/07/02 07:06:22;;;;;;;20.23;10.67;;;;;;;22.39;48.95;97122.09;5097408;28;20212;-69
2023/07/02 07:08:47;;;;;;;13.73;8.73;;;;;;;22.42;48.25;97115.53;5098917;28;20185;-69
2023/07/02 07:11:12;;;;;;;20.10;10.53;;;;;;;22.37;48.18;97118.06;5093831;28;20296;-69
2023/07/02 07:13:38;;;;;;;19.13;10.57;;;;;;;22.48;48.32;97122.63;5090946;28;20780;-70
2023/07/02 07:16:03;;;;;;;14.20;9.83;;;;;;;22.59;48.09;97128.19;5072997;28;20224;-69
2023/07/02 07:18:29;;;;;;;15.77;10.00;;;;;;;22.64;47.76;97128.31;5089134;28;20206;-70
2023/07/02 07:20:55;;;;;;;23.93;10.17;;;;;;;22.68;48.10;97129.50;5099427;28;20853;-69
2023/07/02 07:23:21;;;;;;;25.37;10.97;;;;;;;22.77;47.78;97122.75;5101379;28;20657;-68
2023/07/02 07:25:46;;;;;;;18.70;10.63;;;;;;;22.92;46.98;97119.59;5090842;28;20428;-70
2023/07/02 07:28:15;;;;;;;20.43;12.63;;;;;;;23.00;46.55;97113.88;5094016;28;20185;-69
2023/07/02 07:30:41;;;;;;;16.23;11.47;;;;;;;23.06;45.67;97125.50;5089937;28;20668;-71
2023/07/02 07:33:07;;;;;;;15.80;11.10;;;;;;;23.16;45.70;97125.72;5099414;28;20431;-69
2023/07/02 07:35:32;;;;;;;16.93;11.50;;;;;;;23.17;45.00;97122.00;5091441;28;20802;-70
2023/07/02 07:37:57;;;;;;;23.97;11.33;;;;;;;23.25;44.29;97120.84;5094309;28;20260;-68
2023/07/02 07:40:23;;;;;;;21.40;12.30;;;;;;;23.38;44.18;97118.94;5094147;28;20247;-71
2023/07/02 07:42:48;;;;;;;20.90;11.90;;;;;;;23.55;43.76;97122.50;5091044;28;20310;-70
2023/07/02 07:45:14;;;;;;;24.57;12.87;;;;;;;23.81;44.03;97117.63;5090746;28;20224;-70
2023/07/02 07:47:39;;;;;;;16.90;11.53;;;;;;;24.06;43.43;97122.69;5089619;28;20674;-70
2023/07/02 07:50:09;;;;;;;16.80;11.07;;;;;;;24.33;42.44;97116.66;5090220;28;20863;-69
2023/07/02 07:52:36;;;;;;;20.87;11.90;;;;;;;24.54;42.18;97125.84;5090264;28;20205;-68
2023/07/02 07:55:02;;;;;;;21.80;12.03;;;;;;;24.71;42.11;97122.38;5090267;28;20432;-69
2023/07/02 07:57:27;;;;;;;19.83;11.87;;;;;;;24.90;41.90;97117.53;5092622;28;20465;-69
2023/07/02 07:59:53;;;;;;;18.77;11.50;;;;;;;25.09;41.13;97120.75;5091092;28;20201;-69
2023/07/02 08:02:18;;;;;;;25.47;13.27;;;;;;;25.15;40.48;97114.38;5089752;28;20296;-69
2023/07/02 08:04:44;;;;;;;22.67;11.90;;;;;;;25.14;39.65;97122.69;5089536;28;20706;-68
2023/07/02 08:07:09;;;;;;;24.50;12.43;;;;;;;25.09;40.22;97114.56;5098121;28;20220;-69
2023/07/02 08:09:34;;;;;;;18.10;12.27;;;;;;;25.14;39.53;97118.13;5091721;28;20263;-71
2023/07/02 08:12:00;;;;;;;15.30;11.07;;;;;;;25.32;39.33;97112.72;5094738;28;20189;-69
2023/07/02 08:14:25;;;;;;;18.83;11.57;;;;;;;25.44;39.25;97105.38;5090189;28;20228;-69
2023/07/02 08:16:51;;;;;;;22.97;13.37;;;;;;;25.53;38.67;97113.78;5088940;28;20232;-69
2023/07/02 08:19:17;;;;;;;18.93;12.20;;;;;;;25.53;38.12;97111.91;5089708;28;20189;-69
2023/07/02 08:21:42;;;;;;;21.13;13.27;;;;;;;25.62;37.92;97112.28;5092023;28;20185;-69
2023/07/02 08:24:08;;;;;;;26.93;13.30;;;;;;;25.45;37.70;97109.69;5096079;28;20685;-70
2023/07/02 08:26:33;;;;;;;21.27;13.07;;;;;;;25.52;38.02;97112.19;5094875;28;20221;-69
2023/07/02 08:28:58;;;;;;;22.50;12.20;;;;;;;25.54;37.95;97116.22;5089690;28;20601;-68
2023/07/02 08:31:24;;;;;;;18.77;11.80;;;;;;;25.50;37.81;97119.66;5089364;28;20197;-68
2023/07/02 08:33:49;;;;;;;22.60;13.90;;;;;;;25.37;38.22;97121.63;5097496;28;20198;-70
2023/07/02 08:36:15;;;;;;;21.67;13.27;;;;;;;25.41;37.69;97121.97;5095302;28;20632;-69
2023/07/02 08:38:42;;;;;;;20.87;12.60;;;;;;;25.51;37.85;97122.09;5088790;28;20366;-70
2023/07/02 08:41:07;;;;;;;20.57;12.87;;;;;;;25.67;37.25;97115.00;5097030;28;20299;-69
2023/07/02 08:43:33;;;;;;;18.97;12.43;;;;;;;25.78;36.92;97121.31;5100115;28;20510;-69
2023/07/02 08:45:59;;;;;;;18.13;11.93;;;;;;;25.89;36.80;97120.34;5071453;28;20185;-69
2023/07/02 08:48:26;;;;;;;19.00;11.70;;;;;;;26.02;36.49;97121.78;5070995;28;20438;-69
2023/07/02 08:50:51;;;;;;;17.80;11.47;;;;;;;26.05;36.30;97115.91;5054419;28;20216;-70
2023/07/02 08:53:17;;;;;;;17.83;12.00;;;;;;;26.05;35.99;97115.91;5092188;28;20793;-70
2023/07/02 08:55:42;;;;;;;22.73;12.80;;;;;;;26.17;35.90;97114.97;5088786;28;20189;-70
2023/07/02 08:58:08;;;;;;;19.23;12.07;;;;;;;26.37;35.74;97117.00;5088462;28;20216;-69
2023/07/02 09:00:36;;;;;;;17.10;12.40;;;;;;;26.47;35.87;97127.84;5094538;28;20331;-70
2023/07/02 09:03:31;;;;;;;15.63;10.40;;;;;;;26.47;33.78;97109.03;5089519;28;20308;-69
2023/07/02 09:05:58;;;;;;;14.90;11.53;;;;;;;26.58;34.37;97114.50;5063020;28;20935;-69
2023/07/02 09:08:27;;;;;;;15.10;10.93;;;;;;;26.73;33.88;97122.63;5101197;28;20427;-70
2023/07/02 09:10:53;;;;;;;14.67;10.30;;;;;;;26.90;33.63;97105.56;5092154;28;20440;-69
2023/07/02 09:13:18;;;;;;;15.00;10.20;;;;;;;27.06;33.01;97101.91;5089400;28;20489;-69
2023/07/02 09:15:44;;;;;;;17.30;11.10;;;;;;;27.10;32.17;97102.97;5093873;28;20258;-71
2023/07/02 09:18:19;;;;;;;15.57;10.13;;;;;;;27.18;32.48;97112.44;5095405;28;20205;-68
2023/07/02 09:20:45;;;;;;;18.70;10.93;;;;;;;27.16;32.05;97113.78;5093593;28;20423;-69
2023/07/02 09:23:11;;;;;;;14.77;10.17;;;;;;;27.10;32.31;97108.34;5091053;28;20774;-69
2023/07/02 09:25:38;;;;;;;17.17;10.00;;;;;;;27.37;32.78;97107.41;5095189;28;20447;-71
2023/07/02 09:28:17;;;;;;;15.60;10.63;;;;;;;27.62;32.17;97107.78;5088926;28;20216;-67
2023/07/02 09:30:52;;;;;;;14.80;10.17;;;;;;;27.67;31.77;97115.84;5096237;28;20553;-70
2023/07/02 09:33:18;;;;;;;16.67;11.20;;;;;;;27.63;31.54;97110.19;5092004;28;20439;-69
2023/07/02 09:35:44;;;;;;;15.73;10.37;;;;;;;27.62;32.04;97110.47;5088390;28;21128;-69
2023/07/02 09:38:09;;;;;;;14.27;9.63;;;;;;;27.58;31.73;97115.59;5071296;28;20205;-69
2023/07/02 09:40:37;;;;;;;16.43;11.30;;;;;;;27.25;31.58;97112.19;5073268;28;20662;-69
2023/07/02 09:43:03;;;;;;;14.10;10.47;;;;;;;27.40;32.08;97104.19;5071434;28;20727;-68
2023/07/02 09:45:28;;;;;;;15.07;11.20;;;;;;;27.56;32.59;97115.84;5088449;28;20553;-69
2023/07/02 09:47:55;;;;;;;14.20;10.70;;;;;;;27.81;31.80;97113.47;5092811;28;20239;-69
2023/07/02 09:50:22;;;;;;;18.40;11.73;;;;;;;27.91;31.85;97100.03;5070004;28;20221;-68
2023/07/02 09:52:48;;;;;;;19.50;11.23;;;;;;;28.12;32.26;97103.59;5095951;28;20438;-70
2023/07/02 09:55:14;;;;;;;13.57;10.40;;;;;;;28.26;31.65;97095.75;5078646;28;21252;-69
2023/07/02 09:57:40;;;;;;;17.33;11.03;;;;;;;28.45;31.71;97097.91;5086411;28;20205;-69
2023/07/02 10:00:07;;;;;;;16.23;11.60;;;;;;;28.65;31.23;97091.69;5074138;28;20453;-69
2023/07/02 10:02:33;;;;;;;16.73;12.53;;;;;;;28.53;31.05;97100.06;5096030;28;20212;-69
2023/07/02 10:04:58;;;;;;;17.83;13.30;;;;;;;28.48;30.99;97092.00;5074622;28;21329;-71
2023/07/02 10:07:32;;;;;;;22.73;12.40;;;;;;;28.45;31.62;97103.31;5069917;28;20755;-69
2023/07/02 10:09:57;;;;;;;18.93;12.10;;;;;;;28.64;31.34;97101.66;5089001;28;20205;-69
2023/07/02 10:12:24;;;;;;;17.97;12.23;;;;;;;28.72;31.01;97099.50;5096381;28;20952;-70
2023/07/02 10:14:52;;;;;;;26.10;13.57;;;;;;;28.36;31.17;97106.53;5090111;28;20193;-70
2023/07/02 10:17:34;;;;;;;23.33;13.73;;;;;;;28.07;30.92;97095.47;5087101;28;21196;-70
2023/07/02 10:20:07;;;;;;;21.20;13.00;;;;;;;28.17;31.26;97100.88;5086925;28;20444;-70
2023/07/02 10:22:53;;;;;;;17.07;13.70;;;;;;;28.24;30.42;97097.13;5090480;28;20440;-70
2023/07/02 10:25:26;;;;;;;20.20;12.97;;;;;;;28.05;31.13;97106.50;5087746;28;20805;-70
2023/07/02 10:27:51;;;;;;;17.97;12.50;;;;;;;27.81;30.58;97106.19;5087394;28;21132;-69
2023/07/02 10:30:17;;;;;;;20.77;12.83;;;;;;;27.67;31.20;97108.59;5087627;28;20451;-70
2023/07/02 10:32:42;;;;;;;20.80;14.37;;;;;;;27.88;31.56;97105.94;5086783;28;20225;-69
2023/07/02 10:35:15;;;;;;;21.50;12.63;;;;;;;28.11;31.18;97095.75;5088136;28;20185;-69
2023/07/02 10:37:41;;;;;;;20.00;12.40;;;;;;;28.14;30.49;97106.00;5090004;28;20213;-71
2023/07/02 10:40:07;;;;;;;24.43;13.80;;;;;;;28.12;30.49;97100.06;5079727;28;20464;-69
2023/07/02 10:42:33;;;;;;;19.27;13.03;;;;;;;27.97;30.41;97104.34;5088524;28;20298;-69
2023/07/02 10:44:59;;;;;;;20.73;13.40;;;;;;;27.99;30.73;97107.56;5086325;28;20427;-69
2023/07/02 10:47:25;;;;;;;17.05;12.70;;;;;;;28.17;30.45;97102.78;5086310;28;20421;-69
2023/07/02 10:49:50;;;;;;;19.47;12.87;;;;;;;28.14;29.95;97100.59;5089315;28;20205;-71
2023/07/02 10:52:16;;;;;;;20.60;12.00;;;;;;;28.11;30.61;97098.44;5089137;28;20268;-69
2023/07/02 10:54:43;;;;;;;21.07;12.70;;;;;;;28.09;30.16;97100.63;5096956;28;20335;-69
2023/07/02 10:57:09;;;;;;;24.60;13.00;;;;;;;28.03;30.39;97097.88;5099384;28;20246;-69
2023/07/02 10:59:35;;;;;;;17.80;12.73;;;;;;;27.98;29.97;97105.16;5087345;28;20596;-70
2023/07/02 11:02:03;;;;;;;22.27;13.10;;;;;;;28.27;30.36;97100.06;5086559;28;20526;-70
2023/07/02 11:04:29;;;;;;;18.20;13.30;;;;;;;28.46;29.74;97104.94;5087797;28;20186;-68
2023/07/02 11:06:55;;;;;;;20.20;12.83;;;;;;;28.78;28.78;97106.50;5068856;28;20802;-70
2023/07/02 11:09:20;;;;;;;20.23;12.97;;;;;;;29.03;28.72;97091.34;5087346;28;20461;-69
2023/07/02 11:11:56;;;;;;;16.83;12.20;;;;;;;29.26;27.62;97088.00;5090491;28;20244;-70
2023/07/02 11:14:35;;;;;;;15.97;12.50;;;;;;;29.48;28.20;97091.44;5096392;28;20758;-68
2023/07/02 11:17:05;;;;;;;16.60;12.03;;;;;;;29.46;26.96;97099.00;5096425;28;20550;-70
2023/07/02 11:19:35;;;;;;;14.90;11.47;;;;;;;29.52;27.07;97098.72;5084806;28;20443;-68
2023/07/02 11:22:01;;;;;;;19.33;12.80;;;;;;;29.67;26.92;97088.91;5089470;28;20845;-70